sensor_id;sensor_type;location;lat;lon;timestamp;pressure;altitude;pressure_sealevel;temperature;humidity
5609;BME280;2826;51.354;9.588;2023-05-11T00:00:50;97917.84;;;14.43;88.67
5609;BME280;2826;51.354;9.588;2023-05-11T00:03:17;97913.38;;;14.45;88.53
5609;BME280;2826;51.354;9.588;2023-05-11T00:05:47;97918.59;;;14.45;88.35
5609;BME280;2826;51.354;9.588;2023-05-11T00:08:15;97917.66;;;14.46;88.19
5609;BME280;2826;51.354;9.588;2023-05-11T00:10:41;97918.59;;;14.45;88.46
5609;BME280;2826;51.354;9.588;2023-05-11T00:13:08;97918.59;;;14.45;88.02
5609;BME280;2826;51.354;9.588;2023-05-11T00:15:34;97918.53;;;14.46;88.54
5609;BME280;2826;51.354;9.588;2023-05-11T00:18:01;97916.72;;;14.47;88.11
5609;BME280;2826;51.354;9.588;2023-05-11T00:20:28;97913.09;;;14.49;88.19
5609;BME280;2826;51.354;9.588;2023-05-11T00:22:56;97912.38;;;14.47;88.46
5609;BME280;2826;51.354;9.588;2023-05-11T00:25:22;97919.16;;;14.50;87.92
5609;BME280;2826;51.354;9.588;2023-05-11T00:27:49;97918.31;;;14.49;87.84
5609;BME280;2826;51.354;9.588;2023-05-11T00:30:17;97910.59;;;14.48;88.06
5609;BME280;2826;51.354;9.588;2023-05-11T00:32:44;97914.13;;;14.47;88.16
5609;BME280;2826;51.354;9.588;2023-05-11T00:35:11;97911.72;;;14.44;87.69
5609;BME280;2826;51.354;9.588;2023-05-11T00:37:39;97913.66;;;14.40;87.80
5609;BME280;2826;51.354;9.588;2023-05-11T00:40:08;97906.94;;;14.36;88.11
5609;BME280;2826;51.354;9.588;2023-05-11T00:42:35;97907.78;;;14.36;88.25
5609;BME280;2826;51.354;9.588;2023-05-11T00:45:02;97911.34;;;14.35;87.86
5609;BME280;2826;51.354;9.588;2023-05-11T00:47:29;97906.13;;;14.35;88.04
5609;BME280;2826;51.354;9.588;2023-05-11T00:49:56;97904.44;;;14.34;88.14
5609;BME280;2826;51.354;9.588;2023-05-11T00:52:23;97908.91;;;14.32;87.90
5609;BME280;2826;51.354;9.588;2023-05-11T00:54:50;97908.06;;;14.32;87.67
5609;BME280;2826;51.354;9.588;2023-05-11T00:57:18;97904.69;;;14.30;87.88
5609;BME280;2826;51.354;9.588;2023-05-11T00:59:46;97901.25;;;14.29;87.70
5609;BME280;2826;51.354;9.588;2023-05-11T01:02:14;97901.25;;;14.29;87.69
5609;BME280;2826;51.354;9.588;2023-05-11T01:04:41;97904.69;;;14.30;87.98
5609;BME280;2826;51.354;9.588;2023-05-11T01:07:11;97901.25;;;14.29;87.73
5609;BME280;2826;51.354;9.588;2023-05-11T01:09:47;97905.63;;;14.29;87.90
5609;BME280;2826;51.354;9.588;2023-05-11T01:12:25;97900.69;;;14.24;88.19
5609;BME280;2826;51.354;9.588;2023-05-11T01:15:00;97902.47;;;14.23;87.83
5609;BME280;2826;51.354;9.588;2023-05-11T01:17:36;97902.47;;;14.23;87.90
5609;BME280;2826;51.354;9.588;2023-05-11T01:20:09;97903.50;;;14.21;88.40
5609;BME280;2826;51.354;9.588;2023-05-11T01:22:47;97906.09;;;14.21;88.19
5609;BME280;2826;51.354;9.588;2023-05-11T01:25:35;97907.78;;;14.22;88.36
5609;BME280;2826;51.354;9.588;2023-05-11T01:28:22;97904.41;;;14.20;87.85
5609;BME280;2826;51.354;9.588;2023-05-11T01:30:53;97900.97;;;14.19;88.06
5609;BME280;2826;51.354;9.588;2023-05-11T01:33:30;97874.97;;;14.03;88.33
5609;BME280;2826;51.354;9.588;2023-05-11T01:36:02;97902.72;;;14.19;88.10
5609;BME280;2826;51.354;9.588;2023-05-11T01:38:32;97900.97;;;14.19;88.01
5609;BME280;2826;51.354;9.588;2023-05-11T01:41:00;97899.47;;;14.15;88.34
5609;BME280;2826;51.354;9.588;2023-05-11T01:43:29;97903.84;;;14.15;88.49
5609;BME280;2826;51.354;9.588;2023-05-11T01:46:00;97903.91;;;14.13;88.28
5609;BME280;2826;51.354;9.588;2023-05-11T01:48:29;97903.00;;;14.14;88.70
5609;BME280;2826;51.354;9.588;2023-05-11T01:51:01;97905.63;;;14.14;88.20
5609;BME280;2826;51.354;9.588;2023-05-11T01:53:30;97904.78;;;14.14;88.01
5609;BME280;2826;51.354;9.588;2023-05-11T01:55:58;97902.41;;;14.09;88.09
5609;BME280;2826;51.354;9.588;2023-05-11T01:58:27;97909.75;;;14.02;88.09
5609;BME280;2826;51.354;9.588;2023-05-11T02:00:56;97906.50;;;13.98;88.07
5609;BME280;2826;51.354;9.588;2023-05-11T02:03:26;97906.59;;;13.97;88.32
5609;BME280;2826;51.354;9.588;2023-05-11T02:05:54;97916.19;;;13.96;87.98
5609;BME280;2826;51.354;9.588;2023-05-11T02:08:24;97911.81;;;13.97;88.42
5609;BME280;2826;51.354;9.588;2023-05-11T02:10:52;97905.00;;;13.94;88.48
5609;BME280;2826;51.354;9.588;2023-05-11T02:13:20;97910.28;;;13.93;88.43
5609;BME280;2826;51.354;9.588;2023-05-11T02:15:50;97857.94;;;13.67;88.23
5609;BME280;2826;51.354;9.588;2023-05-11T02:18:18;97905.38;;;13.88;88.12
5609;BME280;2826;51.354;9.588;2023-05-11T02:20:57;97908.06;;;13.87;88.81
5609;BME280;2826;51.354;9.588;2023-05-11T02:23:24;97913.19;;;13.88;88.67
5609;BME280;2826;51.354;9.588;2023-05-11T02:25:53;97910.50;;;13.90;88.70
5609;BME280;2826;51.354;9.588;2023-05-11T02:28:20;97909.00;;;13.85;88.30
5609;BME280;2826;51.354;9.588;2023-05-11T02:30:51;97916.88;;;13.84;88.94
5609;BME280;2826;51.354;9.588;2023-05-11T02:33:24;97916.03;;;13.83;88.65
5609;BME280;2826;51.354;9.588;2023-05-11T02:35:56;97914.38;;;13.82;88.89
5609;BME280;2826;51.354;9.588;2023-05-11T02:38:31;97905.97;;;13.77;88.85
5609;BME280;2826;51.354;9.588;2023-05-11T02:41:04;97914.53;;;13.79;88.98
5609;BME280;2826;51.354;9.588;2023-05-11T02:43:34;97912.78;;;13.80;88.64
5609;BME280;2826;51.354;9.588;2023-05-11T02:46:05;97916.31;;;13.79;89.08
5609;BME280;2826;51.354;9.588;2023-05-11T02:48:38;97882.00;;;13.56;88.76
5609;BME280;2826;51.354;9.588;2023-05-11T02:51:10;97919.00;;;13.77;89.01
5609;BME280;2826;51.354;9.588;2023-05-11T02:53:43;97912.94;;;13.77;89.07
5609;BME280;2826;51.354;9.588;2023-05-11T02:56:11;97909.31;;;13.79;88.88
5609;BME280;2826;51.354;9.588;2023-05-11T02:58:38;97911.84;;;13.81;89.11
5609;BME280;2826;51.354;9.588;2023-05-11T03:01:22;97908.22;;;13.83;88.95
5609;BME280;2826;51.354;9.588;2023-05-11T03:03:49;97914.19;;;13.85;89.27
5609;BME280;2826;51.354;9.588;2023-05-11T03:06:19;97919.22;;;13.89;88.91
5609;BME280;2826;51.354;9.588;2023-05-11T03:08:46;97913.19;;;13.88;88.98
5609;BME280;2826;51.354;9.588;2023-05-11T03:11:15;97906.19;;;13.89;89.32
5609;BME280;2826;51.354;9.588;2023-05-11T03:13:44;97908.72;;;13.90;89.22
5609;BME280;2826;51.354;9.588;2023-05-11T03:16:14;97912.16;;;13.91;88.83
5609;BME280;2826;51.354;9.588;2023-05-11T03:18:42;97917.28;;;13.92;88.85
5609;BME280;2826;51.354;9.588;2023-05-11T03:21:09;97908.53;;;13.93;89.38
5609;BME280;2826;51.354;9.588;2023-05-11T03:23:38;97913.66;;;13.95;88.88
5609;BME280;2826;51.354;9.588;2023-05-11T03:26:07;97910.97;;;13.96;89.12
5609;BME280;2826;51.354;9.588;2023-05-11T03:28:37;97907.44;;;13.97;89.01
5609;BME280;2826;51.354;9.588;2023-05-11T03:31:06;97905.75;;;13.96;88.82
5609;BME280;2826;51.354;9.588;2023-05-11T03:33:33;97901.38;;;13.97;89.27
5609;BME280;2826;51.354;9.588;2023-05-11T03:36:02;97903.97;;;13.97;88.92
5609;BME280;2826;51.354;9.588;2023-05-11T03:38:33;97903.25;;;13.95;88.76
5609;BME280;2826;51.354;9.588;2023-05-11T03:41:03;97904.91;;;13.96;89.13
5609;BME280;2826;51.354;9.588;2023-05-11T03:43:33;97911.16;;;13.93;88.77
5609;BME280;2826;51.354;9.588;2023-05-11T03:46:02;97844.59;;;13.57;88.89
5609;BME280;2826;51.354;9.588;2023-05-11T03:48:30;97905.28;;;13.90;89.52
5609;BME280;2826;51.354;9.588;2023-05-11T03:50:57;97899.94;;;13.91;89.21
5609;BME280;2826;51.354;9.588;2023-05-11T03:53:24;97904.25;;;13.92;89.17
5609;BME280;2826;51.354;9.588;2023-05-11T03:55:51;97907.88;;;13.90;89.54
5609;BME280;2826;51.354;9.588;2023-05-11T03:58:20;97893.25;;;13.87;89.45
5609;BME280;2826;51.354;9.588;2023-05-11T04:00:47;97904.59;;;13.86;89.55
5609;BME280;2826;51.354;9.588;2023-05-11T04:03:14;97896.97;;;13.83;89.42
5609;BME280;2826;51.354;9.588;2023-05-11T04:05:41;97893.59;;;13.81;89.25
5609;BME280;2826;51.354;9.588;2023-05-11T04:08:10;97900.31;;;13.85;89.47
5609;BME280;2826;51.354;9.588;2023-05-11T04:10:38;97896.34;;;13.94;89.31
5609;BME280;2826;51.354;9.588;2023-05-11T04:13:04;97893.84;;;13.92;88.94
5609;BME280;2826;51.354;9.588;2023-05-11T04:15:33;97906.31;;;13.87;89.84
5609;BME280;2826;51.354;9.588;2023-05-11T04:18:00;97907.28;;;13.84;89.43
5609;BME280;2826;51.354;9.588;2023-05-11T04:20:26;97904.50;;;13.88;89.64
5609;BME280;2826;51.354;9.588;2023-05-11T04:22:53;97906.09;;;13.90;89.84
5609;BME280;2826;51.354;9.588;2023-05-11T04:25:19;97898.19;;;13.92;89.63
5609;BME280;2826;51.354;9.588;2023-05-11T04:27:46;97904.25;;;13.92;89.81
5609;BME280;2826;51.354;9.588;2023-05-11T04:30:13;97904.06;;;13.95;89.95
5609;BME280;2826;51.354;9.588;2023-05-11T04:32:41;97908.25;;;13.98;89.57
5609;BME280;2826;51.354;9.588;2023-05-11T04:35:08;97906.41;;;14.00;89.33
5609;BME280;2826;51.354;9.588;2023-05-11T04:37:37;97915.16;;;13.99;89.49
5609;BME280;2826;51.354;9.588;2023-05-11T04:40:06;97913.75;;;13.93;89.89
5609;BME280;2826;51.354;9.588;2023-05-11T04:42:38;97888.66;;;13.76;90.08
5609;BME280;2826;51.354;9.588;2023-05-11T04:45:09;97915.72;;;13.90;90.29
5609;BME280;2826;51.354;9.588;2023-05-11T04:47:36;97920.16;;;13.88;90.69
5609;BME280;2826;51.354;9.588;2023-05-11T04:50:06;97913.66;;;13.95;90.94
5609;BME280;2826;51.354;9.588;2023-05-11T04:52:34;97910.97;;;13.96;90.61
5609;BME280;2826;51.354;9.588;2023-05-11T04:55:01;97917.00;;;13.97;90.65
5609;BME280;2826;51.354;9.588;2023-05-11T04:57:28;97915.09;;;14.01;90.89
5609;BME280;2826;51.354;9.588;2023-05-11T04:59:55;97913.22;;;14.03;91.16
5609;BME280;2826;51.354;9.588;2023-05-11T05:02:22;97914.53;;;14.10;90.48
5609;BME280;2826;51.354;9.588;2023-05-11T05:04:49;97916.38;;;14.08;90.56
5609;BME280;2826;51.354;9.588;2023-05-11T05:07:17;97918.81;;;14.11;90.96
5609;BME280;2826;51.354;9.588;2023-05-11T05:09:44;97921.25;;;14.14;91.06
5609;BME280;2826;51.354;9.588;2023-05-11T05:12:11;97922.09;;;14.15;91.13
5609;BME280;2826;51.354;9.588;2023-05-11T05:14:37;97925.47;;;14.17;91.35
5609;BME280;2826;51.354;9.588;2023-05-11T05:17:04;97923.59;;;14.19;91.03
5609;BME280;2826;51.354;9.588;2023-05-11T05:19:30;97919.97;;;14.21;90.92
5609;BME280;2826;51.354;9.588;2023-05-11T05:21:57;97923.59;;;14.19;90.96
5609;BME280;2826;51.354;9.588;2023-05-11T05:24:25;97925.47;;;14.17;90.94
5609;BME280;2826;51.354;9.588;2023-05-11T05:26:52;97929.81;;;14.16;91.24
5609;BME280;2826;51.354;9.588;2023-05-11T05:29:18;97929.44;;;14.22;91.62
5609;BME280;2826;51.354;9.588;2023-05-11T05:31:45;97906.72;;;14.10;91.52
5609;BME280;2826;51.354;9.588;2023-05-11T05:34:12;97927.78;;;14.21;91.94
5609;BME280;2826;51.354;9.588;2023-05-11T05:36:38;97926.41;;;14.30;91.82
5609;BME280;2826;51.354;9.588;2023-05-11T05:39:05;97931.63;;;14.30;91.63
5609;BME280;2826;51.354;9.588;2023-05-11T05:41:35;97938.22;;;14.36;91.56
5609;BME280;2826;51.354;9.588;2023-05-11T05:44:05;97937.25;;;14.39;92.22
5609;BME280;2826;51.354;9.588;2023-05-11T05:46:32;97942.94;;;14.45;92.54
5609;BME280;2826;51.354;9.588;2023-05-11T05:48:59;97946.84;;;14.53;91.87
5609;BME280;2826;51.354;9.588;2023-05-11T05:51:25;97940.50;;;14.57;91.84
5609;BME280;2826;51.354;9.588;2023-05-11T05:53:52;97941.44;;;14.56;91.50
5609;BME280;2826;51.354;9.588;2023-05-11T05:56:22;97948.81;;;14.63;91.96
5609;BME280;2826;51.354;9.588;2023-05-11T05:58:50;97944.53;;;14.62;91.70
5609;BME280;2826;51.354;9.588;2023-05-11T06:01:17;97949.75;;;14.62;91.91
5609;BME280;2826;51.354;9.588;2023-05-11T06:03:43;97947.59;;;14.69;91.70
5609;BME280;2826;51.354;9.588;2023-05-11T06:06:10;97951.06;;;14.70;91.37
5609;BME280;2826;51.354;9.588;2023-05-11T06:08:37;97956.56;;;14.80;91.42
5609;BME280;2826;51.354;9.588;2023-05-11T06:11:03;97954.66;;;14.83;90.85
5609;BME280;2826;51.354;9.588;2023-05-11T06:13:30;97952.84;;;14.84;90.23
5609;BME280;2826;51.354;9.588;2023-05-11T06:15:59;97958.16;;;14.82;91.18
5609;BME280;2826;51.354;9.588;2023-05-11T06:18:32;97917.66;;;14.46;91.02
5609;BME280;2826;51.354;9.588;2023-05-11T06:21:00;97962.97;;;14.74;91.28
5609;BME280;2826;51.354;9.588;2023-05-11T06:23:29;97959.94;;;14.82;91.46
5609;BME280;2826;51.354;9.588;2023-05-11T06:25:56;97955.94;;;14.91;91.16
5609;BME280;2826;51.354;9.588;2023-05-11T06:28:24;97961.44;;;14.86;92.08
5609;BME280;2826;51.354;9.588;2023-05-11T06:30:56;97958.81;;;15.00;91.04
5609;BME280;2826;51.354;9.588;2023-05-11T06:33:27;97960.59;;;15.00;91.23
5609;BME280;2826;51.354;9.588;2023-05-11T06:35:54;97964.91;;;15.01;91.60
5609;BME280;2826;51.354;9.588;2023-05-11T06:38:21;97954.34;;;15.02;91.28
5609;BME280;2826;51.354;9.588;2023-05-11T06:40:50;97958.16;;;15.11;90.96
5609;BME280;2826;51.354;9.588;2023-05-11T06:43:18;97950.69;;;15.20;90.83
5609;BME280;2826;51.354;9.588;2023-05-11T06:45:47;97953.00;;;15.24;90.54
5609;BME280;2826;51.354;9.588;2023-05-11T06:48:15;97958.41;;;15.36;89.98
5609;BME280;2826;51.354;9.588;2023-05-11T06:50:43;97962.06;;;15.33;88.95
5609;BME280;2826;51.354;9.588;2023-05-11T06:53:13;97951.44;;;15.22;89.82
5609;BME280;2826;51.354;9.588;2023-05-11T06:55:41;97958.59;;;15.33;89.82
5609;BME280;2826;51.354;9.588;2023-05-11T06:58:08;97962.16;;;15.32;89.55
5609;BME280;2826;51.354;9.588;2023-05-11T07:00:34;97961.28;;;15.31;89.28
5609;BME280;2826;51.354;9.588;2023-05-11T07:03:01;97961.66;;;15.39;90.02
5609;BME280;2826;51.354;9.588;2023-05-11T07:05:27;97966.16;;;15.37;89.39
5609;BME280;2826;51.354;9.588;2023-05-11T07:07:56;97962.16;;;15.32;89.41
5609;BME280;2826;51.354;9.588;2023-05-11T07:10:22;97964.66;;;15.33;89.18
5609;BME280;2826;51.354;9.588;2023-05-11T07:12:49;97962.41;;;15.41;89.69
5609;BME280;2826;51.354;9.588;2023-05-11T07:15:15;97968.53;;;15.55;89.40
5609;BME280;2826;51.354;9.588;2023-05-11T07:17:42;97969.91;;;15.61;89.25
5609;BME280;2826;51.354;9.588;2023-05-11T07:20:11;97969.53;;;15.67;88.95
5609;BME280;2826;51.354;9.588;2023-05-11T07:22:38;97970.56;;;15.64;88.98
5609;BME280;2826;51.354;9.588;2023-05-11T07:25:07;97967.75;;;15.67;89.23
5609;BME280;2826;51.354;9.588;2023-05-11T07:27:34;97973.63;;;15.71;89.02
5609;BME280;2826;51.354;9.588;2023-05-11T07:30:01;97972.59;;;15.74;89.40
5609;BME280;2826;51.354;9.588;2023-05-11T07:32:28;97924.59;;;15.47;88.51
5609;BME280;2826;51.354;9.588;2023-05-11T07:34:55;97974.06;;;15.78;88.49
5609;BME280;2826;51.354;9.588;2023-05-11T07:37:21;97962.47;;;15.82;88.83
5609;BME280;2826;51.354;9.588;2023-05-11T07:39:48;97966.91;;;15.94;88.04
5609;BME280;2826;51.354;9.588;2023-05-11T07:42:16;97974.56;;;15.98;88.35
5609;BME280;2826;51.354;9.588;2023-05-11T07:44:42;97956.56;;;15.93;88.25
5609;BME280;2826;51.354;9.588;2023-05-11T07:47:09;97966.72;;;15.98;88.09
5609;BME280;2826;51.354;9.588;2023-05-11T07:49:35;97972.31;;;16.06;87.85
5609;BME280;2826;51.354;9.588;2023-05-11T07:52:02;97966.03;;;16.09;88.01
5609;BME280;2826;51.354;9.588;2023-05-11T07:54:28;97967.59;;;16.11;87.96
5609;BME280;2826;51.354;9.588;2023-05-11T07:56:55;97969.59;;;16.08;88.02
5609;BME280;2826;51.354;9.588;2023-05-11T07:59:23;97969.16;;;16.01;88.49
5609;BME280;2826;51.354;9.588;2023-05-11T08:01:50;97967.91;;;16.06;88.49
5609;BME280;2826;51.354;9.588;2023-05-11T08:04:16;97960.81;;;16.09;88.67
5609;BME280;2826;51.354;9.588;2023-05-11T08:06:43;97969.94;;;16.16;87.33
5609;BME280;2826;51.354;9.588;2023-05-11T08:09:09;97967.94;;;16.19;87.30
5609;BME280;2826;51.354;9.588;2023-05-11T08:11:36;97958.94;;;16.11;86.46
5609;BME280;2826;51.354;9.588;2023-05-11T08:14:02;97964.16;;;16.11;87.07
5609;BME280;2826;51.354;9.588;2023-05-11T08:16:30;97967.59;;;16.11;87.27
5609;BME280;2826;51.354;9.588;2023-05-11T08:18:57;97970.97;;;16.13;87.69
5609;BME280;2826;51.354;9.588;2023-05-11T08:21:24;97975.16;;;16.16;87.57
5609;BME280;2826;51.354;9.588;2023-05-11T08:23:50;97965.09;;;16.10;87.96
5609;BME280;2826;51.354;9.588;2023-05-11T08:26:16;97972.75;;;16.13;88.18
5609;BME280;2826;51.354;9.588;2023-05-11T08:28:43;97973.16;;;16.19;87.65
5609;BME280;2826;51.354;9.588;2023-05-11T08:31:10;97970.47;;;16.21;87.15
5609;BME280;2826;51.354;9.588;2023-05-11T08:33:39;97976.13;;;16.28;87.33
5609;BME280;2826;51.354;9.588;2023-05-11T08:36:07;97976.75;;;16.31;86.94
5609;BME280;2826;51.354;9.588;2023-05-11T08:38:34;97978.41;;;16.32;86.71
5609;BME280;2826;51.354;9.588;2023-05-11T08:41:01;97972.47;;;16.43;88.11
5609;BME280;2826;51.354;9.588;2023-05-11T08:43:29;97968.22;;;16.55;87.14
5609;BME280;2826;51.354;9.588;2023-05-11T08:46:02;97973.25;;;16.71;85.91
5609;BME280;2826;51.354;9.588;2023-05-11T08:48:29;97950.94;;;16.66;85.60
5609;BME280;2826;51.354;9.588;2023-05-11T08:50:58;97976.16;;;16.80;84.58
5609;BME280;2826;51.354;9.588;2023-05-11T08:53:24;97968.19;;;16.81;85.35
5609;BME280;2826;51.354;9.588;2023-05-11T08:55:53;97963.25;;;16.90;85.79
5609;BME280;2826;51.354;9.588;2023-05-11T08:58:20;97974.34;;;16.93;85.74
5609;BME280;2826;51.354;9.588;2023-05-11T09:00:48;97974.59;;;16.90;85.08
5609;BME280;2826;51.354;9.588;2023-05-11T09:03:15;97976.06;;;16.94;84.64
5609;BME280;2826;51.354;9.588;2023-05-11T09:05:43;97970.56;;;16.97;84.74
5609;BME280;2826;51.354;9.588;2023-05-11T09:08:12;97968.50;;;17.03;84.61
5609;BME280;2826;51.354;9.588;2023-05-11T09:10:39;97969.44;;;17.02;83.67
5609;BME280;2826;51.354;9.588;2023-05-11T09:13:07;97955.09;;;16.94;83.02
5609;BME280;2826;51.354;9.588;2023-05-11T09:15:34;97959.91;;;17.01;83.15
5609;BME280;2826;51.354;9.588;2023-05-11T09:18:01;97970.28;;;17.02;83.72
5609;BME280;2826;51.354;9.588;2023-05-11T09:20:30;97961.91;;;16.97;84.56
5609;BME280;2826;51.354;9.588;2023-05-11T09:22:58;97964.31;;;17.00;83.51
5609;BME280;2826;51.354;9.588;2023-05-11T09:25:28;97967.66;;;17.02;82.72
5609;BME280;2826;51.354;9.588;2023-05-11T09:27:58;97961.81;;;16.98;83.44
5609;BME280;2826;51.354;9.588;2023-05-11T09:30:25;97967.84;;;16.99;84.06
5609;BME280;2826;51.354;9.588;2023-05-11T09:32:53;97964.31;;;17.00;82.92
5609;BME280;2826;51.354;9.588;2023-05-11T09:35:21;97964.75;;;17.07;83.49
5609;BME280;2826;51.354;9.588;2023-05-11T09:37:59;97956.91;;;17.07;83.29
5609;BME280;2826;51.354;9.588;2023-05-11T09:40:28;97939.69;;;17.16;84.43
5609;BME280;2826;51.354;9.588;2023-05-11T09:42:54;97966.53;;;17.44;82.78
5609;BME280;2826;51.354;9.588;2023-05-11T09:45:35;97957.19;;;17.53;82.37
5609;BME280;2826;51.354;9.588;2023-05-11T09:48:02;97961.22;;;17.70;81.42
5609;BME280;2826;51.354;9.588;2023-05-11T09:50:31;97959.44;;;17.70;81.59
5609;BME280;2826;51.354;9.588;2023-05-11T09:52:59;97961.72;;;17.75;82.07
5609;BME280;2826;51.354;9.588;2023-05-11T09:55:25;97968.75;;;17.74;81.36
5609;BME280;2826;51.354;9.588;2023-05-11T09:57:54;97966.25;;;17.73;81.07
5609;BME280;2826;51.354;9.588;2023-05-11T10:00:22;97964.28;;;17.63;81.40
5609;BME280;2826;51.354;9.588;2023-05-11T10:02:58;97960.53;;;17.55;81.26
5609;BME280;2826;51.354;9.588;2023-05-11T10:05:25;97955.13;;;17.45;82.18
5609;BME280;2826;51.354;9.588;2023-05-11T10:07:55;97957.78;;;17.32;83.42
5609;BME280;2826;51.354;9.588;2023-05-11T10:10:25;97955.00;;;17.46;84.08
5609;BME280;2826;51.354;9.588;2023-05-11T10:12:54;97902.63;;;17.33;82.74
5609;BME280;2826;51.354;9.588;2023-05-11T10:15:23;97954.09;;;17.72;83.05
5609;BME280;2826;51.354;9.588;2023-05-11T10:17:52;97949.78;;;17.71;82.33
5609;BME280;2826;51.354;9.588;2023-05-11T10:20:19;97952.19;;;17.74;81.25
5609;BME280;2826;51.354;9.588;2023-05-11T10:22:46;97953.72;;;17.76;82.34
5609;BME280;2826;51.354;9.588;2023-05-11T10:25:15;97952.63;;;17.68;82.46
5609;BME280;2826;51.354;9.588;2023-05-11T10:27:42;97947.00;;;17.61;81.74
5609;BME280;2826;51.354;9.588;2023-05-11T10:30:12;97944.47;;;17.59;80.75
5609;BME280;2826;51.354;9.588;2023-05-11T10:32:39;97944.59;;;17.58;81.34
5609;BME280;2826;51.354;9.588;2023-05-11T10:35:08;97938.34;;;17.47;81.88
5609;BME280;2826;51.354;9.588;2023-05-11T10:37:35;97942.13;;;17.43;82.50
5609;BME280;2826;51.354;9.588;2023-05-11T10:40:01;97943.19;;;17.41;82.59
5609;BME280;2826;51.354;9.588;2023-05-11T10:42:56;97942.53;;;17.50;82.08
5609;BME280;2826;51.354;9.588;2023-05-11T10:45:35;97938.16;;;17.37;81.22
5609;BME280;2826;51.354;9.588;2023-05-11T10:48:21;97942.25;;;17.42;82.07
5609;BME280;2826;51.354;9.588;2023-05-11T10:51:00;97945.28;;;17.35;82.20
5609;BME280;2826;51.354;9.588;2023-05-11T10:53:42;97936.59;;;17.35;82.49
5609;BME280;2826;51.354;9.588;2023-05-11T10:56:29;97938.16;;;17.37;83.04
5609;BME280;2826;51.354;9.588;2023-05-11T10:59:19;97888.44;;;17.11;84.44
5609;BME280;2826;51.354;9.588;2023-05-11T11:01:53;97940.31;;;17.57;83.35
5609;BME280;2826;51.354;9.588;2023-05-11T11:04:23;97940.63;;;17.76;84.80
5609;BME280;2826;51.354;9.588;2023-05-11T11:07:03;97921.31;;;17.77;82.60
5609;BME280;2826;51.354;9.588;2023-05-11T11:09:48;97934.59;;;17.87;80.94
5609;BME280;2826;51.354;9.588;2023-05-11T11:12:15;97933.03;;;17.85;81.26
5609;BME280;2826;51.354;9.588;2023-05-11T11:14:53;97932.13;;;17.97;80.46
5609;BME280;2826;51.354;9.588;2023-05-11T11:17:26;97938.34;;;17.96;80.95
5609;BME280;2826;51.354;9.588;2023-05-11T11:19:53;97937.38;;;17.97;81.40
5609;BME280;2826;51.354;9.588;2023-05-11T11:22:42;97937.97;;;18.01;81.03
5609;BME280;2826;51.354;9.588;2023-05-11T11:25:12;97934.97;;;17.94;78.94
5609;BME280;2826;51.354;9.588;2023-05-11T11:27:55;97930.31;;;17.98;80.35
5609;BME280;2826;51.354;9.588;2023-05-11T11:30:23;97936.75;;;17.94;77.94
5609;BME280;2826;51.354;9.588;2023-05-11T11:32:54;97931.38;;;17.84;78.82
5609;BME280;2826;51.354;9.588;2023-05-11T11:35:45;97940.91;;;17.60;79.50
5609;BME280;2826;51.354;9.588;2023-05-11T11:38:15;97940.69;;;17.39;78.95
5609;BME280;2826;51.354;9.588;2023-05-11T11:40:43;97940.09;;;17.22;81.16
5609;BME280;2826;51.354;9.588;2023-05-11T11:43:11;97942.09;;;17.19;81.69
5609;BME280;2826;51.354;9.588;2023-05-11T11:45:41;97939.88;;;17.13;81.32
5609;BME280;2826;51.354;9.588;2023-05-11T11:48:20;97943.97;;;17.04;82.38
5609;BME280;2826;51.354;9.588;2023-05-11T11:50:48;97944.72;;;16.93;82.94
5609;BME280;2826;51.354;9.588;2023-05-11T11:56:44;97939.50;;;16.93;83.22
5609;BME280;2826;51.354;9.588;2023-05-11T11:59:11;97944.53;;;17.09;83.83
5609;BME280;2826;51.354;9.588;2023-05-11T12:01:40;97941.59;;;17.14;83.43
5609;BME280;2826;51.354;9.588;2023-05-11T12:04:26;97942.91;;;17.19;83.91
5609;BME280;2826;51.354;9.588;2023-05-11T12:06:55;97940.94;;;17.23;84.46
5609;BME280;2826;51.354;9.588;2023-05-11T12:09:25;97943.28;;;17.39;83.95
5609;BME280;2826;51.354;9.588;2023-05-11T12:11:52;97934.38;;;17.42;83.69
5609;BME280;2826;51.354;9.588;2023-05-11T12:14:20;97930.88;;;17.54;83.14
5609;BME280;2826;51.354;9.588;2023-05-11T12:17:00;97916.84;;;17.42;83.13
5609;BME280;2826;51.354;9.588;2023-05-11T12:19:29;97933.09;;;17.47;81.76
5609;BME280;2826;51.354;9.588;2023-05-11T12:21:56;97929.53;;;17.48;81.69
5609;BME280;2826;51.354;9.588;2023-05-11T12:24:22;97926.81;;;17.50;83.97
5609;BME280;2826;51.354;9.588;2023-05-11T12:26:49;97934.00;;;17.59;84.03
5609;BME280;2826;51.354;9.588;2023-05-11T12:29:16;97936.91;;;17.68;83.09
5609;BME280;2826;51.354;9.588;2023-05-11T12:31:44;97931.88;;;17.65;82.82
5609;BME280;2826;51.354;9.588;2023-05-11T12:34:13;97929.03;;;17.68;82.36
5609;BME280;2826;51.354;9.588;2023-05-11T12:36:43;97935.09;;;17.68;83.97
5609;BME280;2826;51.354;9.588;2023-05-11T12:39:15;97925.84;;;17.75;83.85
5609;BME280;2826;51.354;9.588;2023-05-11T12:41:42;97923.41;;;17.97;84.23
5609;BME280;2826;51.354;9.588;2023-05-11T12:44:09;97927.16;;;18.06;82.47
5609;BME280;2826;51.354;9.588;2023-05-11T12:46:36;97920.75;;;18.10;81.79
5609;BME280;2826;51.354;9.588;2023-05-11T12:49:04;97923.63;;;18.18;83.00
5609;BME280;2826;51.354;9.588;2023-05-11T12:51:46;97927.91;;;18.08;81.10
5609;BME280;2826;51.354;9.588;2023-05-11T12:54:26;97928.81;;;18.07;81.24
5609;BME280;2826;51.354;9.588;2023-05-11T12:56:53;97930.69;;;17.93;81.30
5609;BME280;2826;51.354;9.588;2023-05-11T12:59:30;97925.47;;;17.69;83.20
5609;BME280;2826;51.354;9.588;2023-05-11T13:02:11;97926.69;;;17.52;84.55
5609;BME280;2826;51.354;9.588;2023-05-11T13:04:40;97929.03;;;17.43;84.76
5609;BME280;2826;51.354;9.588;2023-05-11T13:07:09;97929.25;;;17.40;85.74
5609;BME280;2826;51.354;9.588;2023-05-11T13:09:36;97926.31;;;17.32;85.28
5609;BME280;2826;51.354;9.588;2023-05-11T13:12:12;97926.44;;;17.30;85.46
5609;BME280;2826;51.354;9.588;2023-05-11T13:14:39;97924.47;;;17.21;84.79
5609;BME280;2826;51.354;9.588;2023-05-11T13:17:06;97925.31;;;17.21;84.47
5609;BME280;2826;51.354;9.588;2023-05-11T13:19:32;97924.56;;;17.32;84.76
5609;BME280;2826;51.354;9.588;2023-05-11T13:21:59;97925.47;;;17.31;83.43
5609;BME280;2826;51.354;9.588;2023-05-11T13:24:27;97914.88;;;17.33;83.75
5609;BME280;2826;51.354;9.588;2023-05-11T13:26:56;97920.03;;;17.34;84.34
5609;BME280;2826;51.354;9.588;2023-05-11T13:29:23;97917.19;;;17.37;83.03
5609;BME280;2826;51.354;9.588;2023-05-11T13:31:52;97918.75;;;17.40;83.63
5609;BME280;2826;51.354;9.588;2023-05-11T13:34:19;97927.50;;;17.52;82.69
5609;BME280;2826;51.354;9.588;2023-05-11T13:36:46;97917.69;;;17.67;83.16